createdAt,value
2018-02-13T00:00:16.729Z,2.92
2018-02-13T00:00:43.132Z,2.87
2018-02-13T00:01:09.489Z,2.97
2018-02-13T00:01:35.776Z,2.93
2018-02-13T00:02:02.097Z,2.92
2018-02-13T00:02:28.348Z,2.98
2018-02-13T00:02:54.549Z,3.07
2018-02-13T00:03:20.616Z,3.14
2018-02-13T00:03:46.747Z,3.03
2018-02-13T00:04:12.877Z,3.04
2018-02-13T00:04:39.153Z,2.97
2018-02-13T00:05:05.280Z,2.97
2018-02-13T00:05:31.384Z,2.98
2018-02-13T00:05:58.167Z,3.07
2018-02-13T00:06:24.313Z,3.1
2018-02-13T00:06:50.531Z,3.1
2018-02-13T00:07:16.634Z,3.11
2018-02-13T00:07:42.743Z,3.07
2018-02-13T00:08:08.845Z,3.01
2018-02-13T00:08:35.032Z,3.04
2018-02-13T00:09:01.112Z,3.07
2018-02-13T00:09:27.312Z,3.07
2018-02-13T00:09:53.521Z,3.16
2018-02-13T00:10:19.567Z,2.93
2018-02-13T00:10:45.669Z,3.05
2018-02-13T00:11:11.768Z,3.08
2018-02-13T00:11:37.866Z,2.87
2018-02-13T00:12:03.967Z,2.89
2018-02-13T00:12:30.062Z,3
2018-02-13T00:12:56.186Z,2.82
2018-02-13T00:13:22.287Z,2.97
2018-02-13T00:13:48.386Z,3.01
2018-02-13T00:14:14.486Z,2.98
2018-02-13T00:14:40.582Z,3.01
2018-02-13T00:15:06.688Z,3.1
2018-02-13T00:15:32.803Z,3.13
2018-02-13T00:15:58.898Z,3.14
2018-02-13T00:16:25.031Z,3.08
2018-02-13T00:16:51.097Z,3.05
2018-02-13T00:17:17.209Z,3.1
2018-02-13T00:17:43.304Z,3.07
2018-02-13T00:18:09.414Z,3.08
2018-02-13T00:18:35.515Z,3.11
2018-02-13T00:19:01.610Z,3.1
2018-02-13T00:19:27.708Z,3.04
2018-02-13T00:19:53.805Z,3.01
2018-02-13T00:20:19.904Z,3.03
2018-02-13T00:20:46.006Z,2.95
2018-02-13T00:21:12.101Z,2.87
2018-02-13T00:21:38.203Z,2.89
2018-02-13T00:22:04.299Z,2.93
2018-02-13T00:22:30.400Z,2.86
2018-02-13T00:22:56.501Z,2.93
2018-02-13T00:23:22.598Z,2.9
2018-02-13T00:23:48.696Z,2.9
2018-02-13T00:24:14.818Z,2.85
2018-02-13T00:24:40.937Z,2.87
2018-02-13T00:25:07.032Z,2.83
2018-02-13T00:25:33.136Z,2.86
2018-02-13T00:25:59.234Z,2.83
2018-02-13T00:26:25.329Z,2.98
2018-02-13T00:26:51.434Z,2.85
2018-02-13T00:27:17.533Z,2.85
2018-02-13T00:27:43.627Z,2.9
2018-02-13T00:28:09.730Z,2.75
2018-02-13T00:28:35.827Z,2.89
2018-02-13T00:29:01.924Z,2.86
2018-02-13T00:29:28.029Z,2.72
2018-02-13T00:29:54.125Z,2.79
2018-02-13T00:30:20.245Z,2.72
2018-02-13T00:30:46.339Z,2.87
2018-02-13T00:31:12.439Z,2.86
2018-02-13T00:31:38.535Z,2.87
2018-02-13T00:32:04.644Z,2.9
2018-02-13T00:32:30.752Z,2.86
2018-02-13T00:32:56.868Z,2.83
2018-02-13T00:33:22.959Z,2.87
2018-02-13T00:33:49.055Z,2.89
2018-02-13T00:34:15.164Z,2.82
2018-02-13T00:34:41.279Z,2.83
2018-02-13T00:35:07.386Z,2.89
2018-02-13T00:35:33.489Z,2.79
2018-02-13T00:35:59.582Z,2.9
2018-02-13T00:36:25.683Z,2.85
2018-02-13T00:36:51.776Z,2.83
2018-02-13T00:37:17.879Z,2.86
2018-02-13T00:37:43.977Z,2.79
2018-02-13T00:38:10.095Z,2.74
2018-02-13T00:38:36.198Z,2.79
2018-02-13T00:39:02.303Z,2.8
2018-02-13T00:39:28.397Z,2.83
2018-02-13T00:39:54.555Z,2.87
2018-02-13T00:40:20.602Z,2.89
2018-02-13T00:40:46.702Z,2.85
2018-02-13T00:41:12.803Z,2.85
2018-02-13T00:41:38.900Z,2.75
2018-02-13T00:42:05.004Z,2.82
2018-02-13T00:42:31.099Z,2.87
2018-02-13T00:42:57.196Z,2.82
2018-02-13T00:43:23.301Z,2.72
2018-02-13T00:43:49.399Z,2.74
2018-02-13T00:44:15.516Z,2.74
2018-02-13T00:44:41.612Z,2.69
2018-02-13T00:45:07.730Z,2.67
2018-02-13T00:45:33.827Z,2.71
2018-02-13T00:45:59.928Z,2.67
2018-02-13T00:46:26.028Z,2.79
2018-02-13T00:46:52.122Z,2.83
2018-02-13T00:47:18.226Z,2.87
2018-02-13T00:47:44.320Z,2.72
2018-02-13T00:48:10.420Z,2.69
2018-02-13T00:48:36.513Z,2.64
2018-02-13T00:49:02.612Z,2.64
2018-02-13T00:49:28.714Z,2.51
2018-02-13T00:49:54.810Z,2.64
2018-02-13T00:50:20.928Z,2.65
2018-02-13T00:50:47.032Z,2.69
2018-02-13T00:51:13.127Z,2.54
2018-02-13T00:51:39.246Z,2.71
2018-02-13T00:52:05.327Z,2.62
2018-02-13T00:52:31.423Z,2.69
2018-02-13T00:52:57.525Z,2.64
2018-02-13T00:53:23.630Z,2.64
2018-02-13T00:53:49.726Z,2.75
2018-02-13T00:54:15.847Z,2.72
2018-02-13T00:54:41.944Z,2.68
2018-02-13T00:55:08.040Z,2.69
2018-02-13T00:55:34.142Z,2.74
2018-02-13T00:56:00.249Z,2.71
2018-02-13T00:56:26.344Z,2.64
2018-02-13T00:56:52.446Z,2.62
2018-02-13T00:57:18.541Z,2.68
2018-02-13T00:57:44.651Z,2.54
2018-02-13T00:58:10.755Z,2.49
2018-02-13T00:58:36.873Z,2.64
2018-02-13T00:59:02.972Z,2.57
2018-02-13T00:59:29.068Z,2.64
2018-02-13T00:59:55.172Z,2.64
2018-02-13T01:00:21.273Z,2.5
2018-02-13T01:00:47.369Z,2.68
2018-02-13T01:01:13.491Z,2.6
2018-02-13T01:01:39.589Z,2.67
2018-02-13T01:02:05.688Z,2.64
2018-02-13T01:02:31.783Z,2.65
2018-02-13T01:02:57.895Z,2.6
2018-02-13T01:03:23.990Z,2.68
2018-02-13T01:03:50.096Z,2.54
2018-02-13T01:04:16.188Z,2.5
2018-02-13T01:04:42.288Z,2.5
2018-02-13T01:05:08.387Z,2.51
2018-02-13T01:05:34.483Z,2.6
2018-02-13T01:06:00.600Z,2.6
2018-02-13T01:06:26.703Z,2.62
2018-02-13T01:06:52.819Z,2.65
2018-02-13T01:07:18.917Z,2.62
2018-02-13T01:07:45.019Z,2.57
2018-02-13T01:08:11.117Z,2.6
2018-02-13T01:08:37.218Z,2.6
2018-02-13T01:09:03.317Z,2.5
2018-02-13T01:09:29.428Z,2.64
2018-02-13T01:09:55.533Z,2.57
2018-02-13T01:10:21.627Z,2.6
2018-02-13T01:10:47.730Z,2.54
2018-02-13T01:11:13.819Z,2.53
2018-02-13T01:11:39.918Z,2.62
2018-02-13T01:12:06.042Z,2.57
2018-02-13T01:12:32.148Z,2.62
2018-02-13T01:12:58.243Z,2.56
2018-02-13T01:13:24.346Z,2.54
2018-02-13T01:13:50.444Z,2.51
2018-02-13T01:14:16.535Z,2.6
2018-02-13T01:14:42.655Z,2.57
2018-02-13T01:15:08.756Z,2.61
2018-02-13T01:15:34.853Z,2.6
2018-02-13T01:16:00.973Z,2.68
2018-02-13T01:16:27.067Z,2.54
2018-02-13T01:16:53.172Z,2.56
2018-02-13T01:17:19.268Z,2.61
2018-02-13T01:17:45.371Z,2.64
2018-02-13T01:18:11.467Z,2.6
2018-02-13T01:18:37.565Z,2.56
2018-02-13T01:19:03.669Z,2.44
2018-02-13T01:19:29.763Z,2.47
2018-02-13T01:19:55.863Z,2.54
2018-02-13T01:20:22.004Z,2.49
2018-02-13T01:20:48.069Z,2.61
2018-02-13T01:21:14.168Z,2.6
2018-02-13T01:21:40.264Z,2.62
2018-02-13T01:22:06.387Z,2.57
2018-02-13T01:22:32.488Z,2.46
2018-02-13T01:22:58.602Z,2.44
2018-02-13T01:23:24.697Z,2.44
2018-02-13T01:23:50.796Z,2.49
2018-02-13T01:24:16.900Z,2.51
2018-02-13T01:24:42.994Z,2.51
2018-02-13T01:25:09.101Z,2.42
2018-02-13T01:25:35.193Z,2.38
2018-02-13T01:26:01.294Z,2.46
2018-02-13T01:26:27.400Z,2.46
2018-02-13T01:26:53.499Z,2.49
2018-02-13T01:27:19.618Z,2.49
2018-02-13T01:27:45.717Z,2.38
2018-02-13T01:28:11.808Z,2.39
2018-02-13T01:28:37.915Z,2.38
2018-02-13T01:29:04.011Z,2.42
2018-02-13T01:29:30.109Z,2.39
2018-02-13T01:29:56.211Z,2.49
2018-02-13T01:30:22.306Z,2.39
2018-02-13T01:30:48.415Z,2.5
2018-02-13T01:31:14.517Z,2.5
2018-02-13T01:31:40.616Z,2.5
2018-02-13T01:32:06.719Z,2.44
2018-02-13T01:32:32.819Z,2.44
2018-02-13T01:32:58.925Z,2.43
2018-02-13T01:33:25.019Z,2.49
2018-02-13T01:33:51.118Z,2.49
2018-02-13T01:34:17.220Z,2.43
2018-02-13T01:34:43.321Z,2.43
2018-02-13T01:35:09.418Z,2.44
2018-02-13T01:35:35.511Z,2.46
2018-02-13T01:36:01.614Z,2.57
2018-02-13T01:36:27.704Z,2.49
2018-02-13T01:36:53.807Z,2.42
2018-02-13T01:37:19.902Z,2.39
2018-02-13T01:37:46.007Z,2.43
2018-02-13T01:38:12.109Z,2.35
2018-02-13T01:38:38.201Z,2.33
2018-02-13T01:39:04.304Z,2.42
2018-02-13T01:39:30.399Z,2.53
2018-02-13T01:39:56.503Z,2.46
2018-02-13T01:40:22.605Z,2.42
2018-02-13T01:40:48.699Z,2.43
2018-02-13T01:41:14.796Z,2.35
2018-02-13T01:41:40.896Z,2.39
2018-02-13T01:42:07.018Z,2.42
2018-02-13T01:42:33.113Z,2.32
2018-02-13T01:42:59.212Z,2.42
2018-02-13T01:43:25.314Z,2.39
2018-02-13T01:43:51.413Z,2.44
2018-02-13T01:44:17.508Z,2.38
2018-02-13T01:44:43.619Z,2.36
2018-02-13T01:45:09.725Z,2.33
2018-02-13T01:45:35.823Z,2.42
2018-02-13T01:46:01.920Z,2.38
2018-02-13T01:46:28.022Z,2.47
2018-02-13T01:46:54.116Z,2.46
2018-02-13T01:47:20.215Z,2.38
2018-02-13T01:47:46.319Z,2.51
2018-02-13T01:48:12.427Z,2.42
2018-02-13T01:48:38.529Z,2.36
2018-02-13T01:49:04.623Z,2.36
2018-02-13T01:49:30.726Z,2.39
2018-02-13T01:49:56.818Z,2.42
2018-02-13T01:50:22.918Z,2.36
2018-02-13T01:50:49.025Z,2.42
2018-02-13T01:51:15.123Z,2.42
2018-02-13T01:51:41.221Z,2.49
2018-02-13T01:52:07.337Z,2.35
2018-02-13T01:52:33.438Z,2.31
2018-02-13T01:52:59.532Z,2.43
2018-02-13T01:53:25.631Z,2.35
2018-02-13T01:53:51.732Z,2.42
2018-02-13T01:54:17.826Z,2.38
2018-02-13T01:54:43.928Z,2.38
2018-02-13T01:55:10.030Z,2.39
2018-02-13T01:55:36.124Z,2.33
2018-02-13T01:56:02.243Z,2.31
2018-02-13T01:56:28.348Z,2.29
2018-02-13T01:56:54.444Z,2.38
2018-02-13T01:57:20.540Z,2.31
2018-02-13T01:57:46.639Z,2.32
2018-02-13T01:58:12.740Z,2.31
2018-02-13T01:58:38.843Z,2.26
2018-02-13T01:59:04.958Z,2.29
2018-02-13T01:59:31.072Z,2.36
2018-02-13T01:59:57.165Z,2.31
2018-02-13T02:00:23.259Z,2.33
2018-02-13T02:00:49.362Z,2.28
2018-02-13T02:01:15.460Z,2.31
2018-02-13T02:01:41.566Z,2.17
2018-02-13T02:02:07.679Z,2.26
2018-02-13T02:02:33.775Z,2.26
2018-02-13T02:02:59.876Z,2.31
2018-02-13T02:03:25.970Z,2.25
2018-02-13T02:03:52.067Z,2.29
2018-02-13T02:04:18.179Z,2.31
2018-02-13T02:04:44.282Z,2.26
2018-02-13T02:05:10.380Z,2.22
2018-02-13T02:05:36.475Z,2.36
2018-02-13T02:06:02.579Z,2.18
2018-02-13T02:06:28.694Z,2.24
2018-02-13T02:06:54.791Z,2.26
2018-02-13T02:07:20.885Z,2.2
2018-02-13T02:07:46.989Z,2.35
2018-02-13T02:08:13.091Z,2.31
2018-02-13T02:08:39.186Z,2.26
2018-02-13T02:09:05.288Z,2.29
2018-02-13T02:09:31.382Z,2.35
2018-02-13T02:09:57.484Z,2.13
2018-02-13T02:10:23.579Z,2.15
2018-02-13T02:10:49.673Z,2.15
2018-02-13T02:11:15.775Z,2.22
2018-02-13T02:11:41.883Z,2.32
2018-02-13T02:12:07.983Z,2.29
2018-02-13T02:12:34.084Z,2.35
2018-02-13T02:13:00.180Z,2.28
2018-02-13T02:13:26.286Z,2.31
2018-02-13T02:13:52.390Z,2.24
2018-02-13T02:14:18.487Z,2.31
2018-02-13T02:14:44.586Z,2.26
2018-02-13T02:15:10.689Z,2.26
2018-02-13T02:15:36.795Z,2.32
2018-02-13T02:16:02.894Z,2.29
2018-02-13T02:16:29.008Z,2.29
2018-02-13T02:16:55.104Z,2.33
2018-02-13T02:17:21.202Z,2.32
2018-02-13T02:17:47.297Z,2.42
2018-02-13T02:18:13.404Z,2.49
2018-02-13T02:18:39.511Z,2.49
2018-02-13T02:19:05.607Z,2.44
2018-02-13T02:19:31.713Z,2.38
2018-02-13T02:19:57.812Z,2.42
2018-02-13T02:20:23.905Z,2.36
2018-02-13T02:20:50.013Z,2.36
2018-02-13T02:21:16.106Z,2.31
2018-02-13T02:21:42.211Z,2.28
2018-02-13T02:22:08.312Z,2.32
2018-02-13T02:22:34.407Z,2.35
2018-02-13T02:23:00.558Z,2.25
2018-02-13T02:23:26.609Z,2.35
2018-02-13T02:23:52.713Z,2.24
2018-02-13T02:24:18.809Z,2.28
2018-02-13T02:24:44.921Z,2.22
2018-02-13T02:25:11.029Z,2.22
2018-02-13T02:25:37.125Z,2.15
2018-02-13T02:26:03.223Z,2.15
2018-02-13T02:26:29.319Z,2.13
2018-02-13T02:26:55.422Z,2.18
2018-02-13T02:27:21.524Z,2.26
2018-02-13T02:27:47.618Z,2.31
2018-02-13T02:28:13.722Z,2.29
2018-02-13T02:28:39.817Z,2.32
2018-02-13T02:29:05.938Z,2.32
2018-02-13T02:29:32.030Z,2.29
2018-02-13T02:29:58.128Z,2.35
2018-02-13T02:30:24.250Z,2.42
2018-02-13T02:30:50.360Z,2.38
2018-02-13T02:31:16.466Z,2.42
2018-02-13T02:31:42.563Z,2.36
2018-02-13T02:32:08.664Z,2.39
2018-02-13T02:32:34.764Z,2.36
2018-02-13T02:33:00.861Z,2.42
2018-02-13T02:33:26.962Z,2.33
2018-02-13T02:33:53.062Z,2.29
2018-02-13T02:34:19.161Z,2.36
2018-02-13T02:34:45.297Z,2.33
2018-02-13T02:35:11.398Z,2.38
2018-02-13T02:35:37.490Z,2.29
2018-02-13T02:36:03.603Z,2.33
2018-02-13T02:36:29.706Z,2.39
2018-02-13T02:36:55.804Z,2.42
2018-02-13T02:37:21.905Z,2.38
2018-02-13T02:37:48.001Z,2.38
2018-02-13T02:38:14.092Z,2.43
2018-02-13T02:38:40.196Z,2.42
2018-02-13T02:39:06.297Z,2.43
2018-02-13T02:39:32.389Z,2.54
2018-02-13T02:39:58.489Z,2.39
2018-02-13T02:40:24.589Z,2.43
2018-02-13T02:40:50.686Z,2.38
2018-02-13T02:41:16.786Z,2.38
2018-02-13T02:41:42.892Z,2.38
2018-02-13T02:42:08.988Z,2.39
2018-02-13T02:42:35.089Z,2.36
2018-02-13T02:43:01.185Z,2.38
2018-02-13T02:43:27.289Z,2.36
2018-02-13T02:43:53.382Z,2.44
2018-02-13T02:44:19.482Z,2.47
2018-02-13T02:44:45.579Z,2.47
2018-02-13T02:45:11.682Z,2.43
2018-02-13T02:45:37.777Z,2.47
2018-02-13T02:46:03.879Z,2.51
2018-02-13T02:46:29.980Z,2.5
2018-02-13T02:46:56.087Z,2.36
2018-02-13T02:47:22.172Z,2.39
2018-02-13T02:47:48.278Z,2.38
2018-02-13T02:48:14.378Z,2.47
2018-02-13T02:48:40.480Z,2.38
2018-02-13T02:49:06.571Z,2.33
2018-02-13T02:49:32.677Z,2.33
2018-02-13T02:49:58.795Z,2.39
2018-02-13T02:50:24.906Z,2.32
2018-02-13T02:50:51.008Z,2.22
2018-02-13T02:51:17.108Z,2.32
2018-02-13T02:51:43.203Z,2.32
2018-02-13T02:52:09.306Z,2.13
2018-02-13T02:52:35.407Z,2.24
2018-02-13T02:53:01.536Z,2.22
2018-02-13T02:53:27.637Z,2.28
2018-02-13T02:53:53.733Z,2.32
2018-02-13T02:54:19.837Z,2.25
2018-02-13T02:54:45.935Z,2.29
2018-02-13T02:55:12.030Z,2.18
2018-02-13T02:55:38.135Z,2.18
2018-02-13T02:56:04.230Z,2.22
2018-02-13T02:56:30.334Z,2.28
2018-02-13T02:56:56.427Z,2.13
2018-02-13T02:57:22.531Z,2.11
2018-02-13T02:57:48.632Z,2.17
2018-02-13T02:58:14.726Z,2.2
2018-02-13T02:58:40.826Z,2.24
2018-02-13T02:59:06.925Z,2.29
2018-02-13T02:59:33.028Z,2.28
2018-02-13T02:59:59.129Z,2.29
2018-02-13T03:00:25.228Z,2.26
2018-02-13T03:00:51.330Z,2.31
2018-02-13T03:01:17.430Z,2.28
2018-02-13T03:01:43.528Z,2.32
2018-02-13T03:02:09.640Z,2.29
2018-02-13T03:02:35.760Z,2.31
2018-02-13T03:03:01.893Z,2.33
2018-02-13T03:03:27.989Z,2.31
2018-02-13T03:03:54.093Z,2.29
2018-02-13T03:04:20.200Z,2.33
2018-02-13T03:04:46.299Z,2.28
2018-02-13T03:05:12.395Z,2.32
2018-02-13T03:05:38.499Z,2.26
2018-02-13T03:06:04.594Z,2.25
2018-02-13T03:06:30.710Z,2.32
2018-02-13T03:06:56.803Z,2.31
2018-02-13T03:07:22.908Z,2.29
2018-02-13T03:07:49.002Z,2.29
2018-02-13T03:08:15.105Z,2.32
2018-02-13T03:08:41.205Z,2.24
2018-02-13T03:09:07.303Z,2.29
2018-02-13T03:09:33.398Z,2.28
2018-02-13T03:09:59.534Z,2.2
2018-02-13T03:10:25.650Z,2.18
2018-02-13T03:10:51.743Z,2.2
2018-02-13T03:11:17.847Z,2.32
2018-02-13T03:11:43.946Z,2.31
2018-02-13T03:12:10.044Z,2.32
2018-02-13T03:12:36.145Z,2.35
2018-02-13T03:13:02.253Z,2.33
2018-02-13T03:13:28.357Z,2.33
2018-02-13T03:13:54.472Z,2.36
2018-02-13T03:14:20.571Z,2.42
2018-02-13T03:14:46.683Z,2.39
2018-02-13T03:15:12.780Z,2.36
2018-02-13T03:15:38.880Z,2.53
2018-02-13T03:16:04.983Z,2.44
2018-02-13T03:16:31.075Z,2.43
2018-02-13T03:16:57.171Z,2.51
2018-02-13T03:17:23.273Z,2.5
2018-02-13T03:17:49.382Z,2.5
2018-02-13T03:18:15.476Z,2.51
2018-02-13T03:18:41.580Z,2.57
2018-02-13T03:19:07.675Z,2.47
2018-02-13T03:19:33.769Z,2.51
2018-02-13T03:19:59.870Z,2.56
2018-02-13T03:20:25.968Z,2.51
2018-02-13T03:20:52.065Z,2.62
2018-02-13T03:21:18.165Z,2.65
2018-02-13T03:21:44.261Z,2.69
2018-02-13T03:22:10.359Z,2.67
2018-02-13T03:22:36.463Z,2.64
2018-02-13T03:23:02.558Z,2.68
2018-02-13T03:23:28.658Z,2.57
2018-02-13T03:23:54.757Z,2.69
2018-02-13T03:24:20.851Z,2.67
2018-02-13T03:24:46.961Z,2.68
2018-02-13T03:25:13.058Z,2.69
2018-02-13T03:25:39.154Z,2.62
2018-02-13T03:26:05.252Z,2.54
2018-02-13T03:26:31.422Z,2.57
2018-02-13T03:26:57.472Z,2.53
2018-02-13T03:27:23.568Z,2.67
2018-02-13T03:27:49.670Z,2.65
2018-02-13T03:28:15.765Z,2.71
2018-02-13T03:28:41.867Z,2.75
2018-02-13T03:29:07.962Z,2.68
2018-02-13T03:29:34.063Z,2.69
2018-02-13T03:30:00.167Z,2.79
2018-02-13T03:30:26.297Z,2.77
2018-02-13T03:30:52.392Z,2.83
2018-02-13T03:31:18.494Z,2.74
2018-02-13T03:31:44.595Z,2.74
2018-02-13T03:32:10.692Z,2.86
2018-02-13T03:32:36.811Z,2.69
2018-02-13T03:33:02.908Z,2.72
2018-02-13T03:33:29.010Z,2.69
2018-02-13T03:33:55.105Z,2.61
2018-02-13T03:34:21.203Z,2.72
2018-02-13T03:34:47.307Z,2.62
2018-02-13T03:35:13.425Z,2.68
2018-02-13T03:35:39.522Z,2.67
2018-02-13T03:36:05.617Z,2.71
2018-02-13T03:36:31.720Z,2.68
2018-02-13T03:36:57.822Z,2.75
2018-02-13T03:37:23.934Z,2.72
2018-02-13T03:37:50.082Z,2.71
2018-02-13T03:38:16.138Z,2.72
2018-02-13T03:38:42.237Z,2.74
2018-02-13T03:39:08.332Z,2.75
2018-02-13T03:39:34.430Z,2.72
2018-02-13T03:40:00.527Z,2.67
2018-02-13T03:40:26.625Z,2.68
2018-02-13T03:40:52.728Z,2.74
2018-02-13T03:41:18.825Z,2.72
2018-02-13T03:41:44.940Z,2.57
2018-02-13T03:42:11.037Z,2.79
2018-02-13T03:42:37.136Z,2.8
2018-02-13T03:43:03.239Z,2.77
2018-02-13T03:43:29.332Z,2.8
2018-02-13T03:43:55.433Z,2.79
2018-02-13T03:44:21.538Z,2.74
2018-02-13T03:44:47.636Z,2.71
2018-02-13T03:45:13.731Z,2.64
2018-02-13T03:45:39.828Z,2.71
2018-02-13T03:46:05.945Z,2.79
2018-02-13T03:46:32.053Z,2.74
2018-02-13T03:46:58.147Z,2.75
2018-02-13T03:47:24.244Z,2.77
2018-02-13T03:47:50.346Z,2.8
2018-02-13T03:48:16.451Z,2.77
2018-02-13T03:48:42.548Z,2.71
2018-02-13T03:49:08.651Z,2.68
2018-02-13T03:49:34.747Z,2.71
2018-02-13T03:50:00.851Z,2.69
2018-02-13T03:50:26.947Z,2.74
2018-02-13T03:50:53.052Z,2.64
2018-02-13T03:51:19.149Z,2.72
2018-02-13T03:51:45.256Z,2.72
2018-02-13T03:52:11.350Z,2.86
2018-02-13T03:52:37.450Z,2.83
2018-02-13T03:53:03.548Z,2.79
2018-02-13T03:53:29.644Z,2.82
2018-02-13T03:53:55.749Z,2.87
2018-02-13T03:54:21.844Z,2.87
2018-02-13T03:54:47.936Z,2.93
2018-02-13T03:55:14.041Z,2.87
2018-02-13T03:55:40.140Z,2.95
2018-02-13T03:56:06.239Z,2.85
2018-02-13T03:56:32.336Z,2.98
2018-02-13T03:56:58.440Z,2.93
2018-02-13T03:57:24.551Z,2.83
2018-02-13T03:57:50.647Z,2.89
2018-02-13T03:58:16.754Z,2.82
2018-02-13T03:58:42.845Z,2.98
2018-02-13T03:59:08.946Z,3
2018-02-13T03:59:35.044Z,2.85
2018-02-13T04:00:01.181Z,2.93
2018-02-13T04:00:27.285Z,2.86
2018-02-13T04:00:53.383Z,2.83
2018-02-13T04:01:19.486Z,3
2018-02-13T04:01:45.578Z,3.04
2018-02-13T04:02:11.673Z,2.98
2018-02-13T04:02:37.775Z,2.97
2018-02-13T04:03:03.876Z,2.9
2018-02-13T04:03:29.992Z,2.87
2018-02-13T04:03:56.096Z,2.86
2018-02-13T04:04:22.190Z,2.97
2018-02-13T04:04:48.293Z,2.97
2018-02-13T04:05:14.391Z,3.04
2018-02-13T04:05:40.494Z,3.1
2018-02-13T04:06:06.593Z,3.13
2018-02-13T04:06:32.688Z,3.14
2018-02-13T04:06:58.791Z,3.11
2018-02-13T04:07:24.886Z,3.07
2018-02-13T04:07:50.989Z,3.13
2018-02-13T04:08:17.084Z,3.16
2018-02-13T04:08:43.190Z,3.07
2018-02-13T04:09:09.292Z,3.04
2018-02-13T04:09:35.402Z,3
2018-02-13T04:10:01.506Z,3.08
2018-02-13T04:10:27.600Z,3.1
2018-02-13T04:10:53.700Z,3.08
2018-02-13T04:11:19.820Z,3.18
2018-02-13T04:11:45.914Z,3.1
2018-02-13T04:12:12.015Z,3.08
2018-02-13T04:12:38.117Z,3.11
2018-02-13T04:13:04.215Z,3.16
2018-02-13T04:13:30.311Z,3.1
2018-02-13T04:13:56.420Z,3.13
2018-02-13T04:14:22.520Z,3.14
2018-02-13T04:14:48.614Z,3.22
2018-02-13T04:15:14.719Z,3.11
2018-02-13T04:15:40.814Z,3.21
2018-02-13T04:16:06.915Z,3.21
2018-02-13T04:16:33.017Z,3.19
2018-02-13T04:16:59.111Z,3.22
2018-02-13T04:17:25.212Z,3.25
2018-02-13T04:17:51.307Z,3.16
2018-02-13T04:18:17.407Z,3.31
2018-02-13T04:18:43.505Z,3.26
2018-02-13T04:19:09.604Z,3.22
2018-02-13T04:19:35.711Z,3.05
2018-02-13T04:20:01.811Z,3.13
2018-02-13T04:20:27.912Z,3.01
2018-02-13T04:20:54.033Z,3.03
2018-02-13T04:21:20.129Z,3.07
2018-02-13T04:21:46.256Z,3.04
2018-02-13T04:22:12.344Z,3.07
2018-02-13T04:22:38.449Z,3.08
2018-02-13T04:23:04.548Z,3.13
2018-02-13T04:23:30.649Z,3.05
2018-02-13T04:23:56.744Z,3.08
2018-02-13T04:24:22.858Z,3.04
2018-02-13T04:24:48.955Z,2.92
2018-02-13T04:25:15.059Z,2.87
2018-02-13T04:25:41.151Z,2.97
2018-02-13T04:26:07.255Z,2.95
2018-02-13T04:26:33.356Z,3
2018-02-13T04:26:59.453Z,3.07
2018-02-13T04:27:25.555Z,3.03
2018-02-13T04:27:51.653Z,3.03
2018-02-13T04:28:17.752Z,2.93
2018-02-13T04:28:43.851Z,2.86
2018-02-13T04:29:09.982Z,2.87
2018-02-13T04:29:36.076Z,2.93
2018-02-13T04:30:02.182Z,2.85
2018-02-13T04:30:28.293Z,2.87
2018-02-13T04:30:54.398Z,2.87
2018-02-13T04:31:20.494Z,2.89
2018-02-13T04:31:46.593Z,2.87
2018-02-13T04:32:12.697Z,2.83
2018-02-13T04:32:38.813Z,2.83
2018-02-13T04:33:04.908Z,2.89
2018-02-13T04:33:31.059Z,2.87
2018-02-13T04:33:57.123Z,2.85
2018-02-13T04:34:23.223Z,2.98
2018-02-13T04:34:49.325Z,2.92
2018-02-13T04:35:15.419Z,2.85
2018-02-13T04:35:41.520Z,2.93
2018-02-13T04:36:07.622Z,2.83
2018-02-13T04:36:33.716Z,2.83
2018-02-13T04:36:59.817Z,2.89
2018-02-13T04:37:25.916Z,2.69
2018-02-13T04:37:52.014Z,2.77
2018-02-13T04:38:18.114Z,2.77
2018-02-13T04:38:44.207Z,2.74
2018-02-13T04:39:10.325Z,2.75
2018-02-13T04:39:36.418Z,2.72
2018-02-13T04:40:02.528Z,2.62
2018-02-13T04:40:28.629Z,2.72
2018-02-13T04:40:54.725Z,2.74
2018-02-13T04:41:20.822Z,2.72
2018-02-13T04:41:46.922Z,2.79
2018-02-13T04:42:13.019Z,2.8
2018-02-13T04:42:39.117Z,2.68
2018-02-13T04:43:05.213Z,2.71
2018-02-13T04:43:31.316Z,2.65
2018-02-13T04:43:57.418Z,2.65
2018-02-13T04:44:23.524Z,2.69
2018-02-13T04:44:49.620Z,2.67
2018-02-13T04:45:15.724Z,2.72
2018-02-13T04:45:41.824Z,2.75
2018-02-13T04:46:07.917Z,2.68
2018-02-13T04:46:34.019Z,2.69
2018-02-13T04:47:00.132Z,2.72
2018-02-13T04:47:26.228Z,2.72
2018-02-13T04:47:52.332Z,2.8
2018-02-13T04:48:18.428Z,2.79
2018-02-13T04:48:44.531Z,2.75
2018-02-13T04:49:10.632Z,2.69
2018-02-13T04:49:36.727Z,2.72
2018-02-13T04:50:02.831Z,2.74
2018-02-13T04:50:28.926Z,2.74
2018-02-13T04:50:55.022Z,2.82
2018-02-13T04:51:21.126Z,2.77
2018-02-13T04:51:47.223Z,2.75
2018-02-13T04:52:13.326Z,2.68
2018-02-13T04:52:39.423Z,2.71
2018-02-13T04:53:05.524Z,2.71
2018-02-13T04:53:31.626Z,2.71
2018-02-13T04:53:57.728Z,2.69
2018-02-13T04:54:23.834Z,2.8
2018-02-13T04:54:49.939Z,2.87
2018-02-13T04:55:16.030Z,2.86
2018-02-13T04:55:42.131Z,2.79
2018-02-13T04:56:08.232Z,2.8
2018-02-13T04:56:34.327Z,2.83
2018-02-13T04:57:00.427Z,2.68
2018-02-13T04:57:26.530Z,2.67
2018-02-13T04:57:52.633Z,2.74
2018-02-13T04:58:18.733Z,2.72
2018-02-13T04:58:44.841Z,2.72
2018-02-13T04:59:10.940Z,2.68
2018-02-13T04:59:37.045Z,2.71
2018-02-13T05:00:03.139Z,2.75
2018-02-13T05:00:29.246Z,2.71
2018-02-13T05:00:55.340Z,2.75
2018-02-13T05:01:21.441Z,2.79
2018-02-13T05:01:47.537Z,2.83
2018-02-13T05:02:13.632Z,2.79
2018-02-13T05:02:39.732Z,2.72
2018-02-13T05:03:05.829Z,2.87
2018-02-13T05:03:31.923Z,2.9
2018-02-13T05:03:58.041Z,2.79
2018-02-13T05:04:24.145Z,2.75
2018-02-13T05:04:50.244Z,2.71
2018-02-13T05:05:16.342Z,2.71
2018-02-13T05:05:42.444Z,2.71
2018-02-13T05:06:08.543Z,2.67
2018-02-13T05:06:34.654Z,2.62
2018-02-13T05:07:00.763Z,2.64
2018-02-13T05:07:26.866Z,2.68
2018-02-13T05:07:52.963Z,2.75
2018-02-13T05:08:19.069Z,2.61
2018-02-13T05:08:45.164Z,2.56
2018-02-13T05:09:11.261Z,2.46
2018-02-13T05:09:37.363Z,2.54
2018-02-13T05:10:03.465Z,2.42
2018-02-13T05:10:29.560Z,2.39
2018-02-13T05:10:55.656Z,2.33
2018-02-13T05:11:21.760Z,2.43
2018-02-13T05:11:47.861Z,2.33
2018-02-13T05:12:13.958Z,2.25
2018-02-13T05:12:40.060Z,2.24
2018-02-13T05:13:06.157Z,2.26
2018-02-13T05:13:32.259Z,2.28
2018-02-13T05:13:58.359Z,2.33
2018-02-13T05:14:24.459Z,2.26
2018-02-13T05:14:50.573Z,2.32
2018-02-13T05:15:16.674Z,2.43
2018-02-13T05:15:42.791Z,2.44
2018-02-13T05:16:08.888Z,2.35
2018-02-13T05:16:34.993Z,2.28
2018-02-13T05:17:01.109Z,2.33
2018-02-13T05:17:27.218Z,2.35
2018-02-13T05:17:53.333Z,2.35
2018-02-13T05:18:19.446Z,2.28
2018-02-13T05:18:45.550Z,2.17
2018-02-13T05:19:11.644Z,2.13
2018-02-13T05:19:37.757Z,2.1
2018-02-13T05:20:03.840Z,2.08
2018-02-13T05:20:29.936Z,2.11
2018-02-13T05:20:56.041Z,2.13
2018-02-13T05:21:22.140Z,2.17
2018-02-13T05:21:48.233Z,2.18
2018-02-13T05:22:14.336Z,2.18
2018-02-13T05:22:40.428Z,2.15
2018-02-13T05:23:06.538Z,2.18
2018-02-13T05:23:32.636Z,2.32
2018-02-13T05:23:58.744Z,2.22
2018-02-13T05:24:24.843Z,2.18
2018-02-13T05:24:50.944Z,2.17
2018-02-13T05:25:17.038Z,2.11
2018-02-13T05:25:43.136Z,2.15
2018-02-13T05:26:09.234Z,2.18
2018-02-13T05:26:35.339Z,2.32
2018-02-13T05:27:01.443Z,2.18
2018-02-13T05:27:27.527Z,2.22
2018-02-13T05:27:53.631Z,2.13
2018-02-13T05:28:19.735Z,2.08
2018-02-13T05:28:45.838Z,2.18
2018-02-13T05:29:11.936Z,2.11
2018-02-13T05:29:38.028Z,2.18
2018-02-13T05:30:04.126Z,2.24
2018-02-13T05:30:30.225Z,2.24
2018-02-13T05:30:56.324Z,2.2
2018-02-13T05:31:22.417Z,2.15
2018-02-13T05:31:48.513Z,2.14
2018-02-13T05:32:14.617Z,2.18
2018-02-13T05:32:40.714Z,2.08
2018-02-13T05:33:06.818Z,2.1
2018-02-13T05:33:32.920Z,2.11
2018-02-13T05:33:59.037Z,2.04
2018-02-13T05:34:25.130Z,2.1
2018-02-13T05:34:51.234Z,2.14
2018-02-13T05:35:17.336Z,2.18
2018-02-13T05:35:43.474Z,2.15
2018-02-13T05:36:09.532Z,2.1
2018-02-13T05:36:35.629Z,2.08
2018-02-13T05:37:01.725Z,2.13
2018-02-13T05:37:27.825Z,2.11
2018-02-13T05:37:53.922Z,2.08
2018-02-13T05:38:20.042Z,2.1
2018-02-13T05:38:46.138Z,2.1
2018-02-13T05:39:12.244Z,2.06
2018-02-13T05:39:38.334Z,2.06
2018-02-13T05:40:04.435Z,2.1
2018-02-13T05:40:30.530Z,2.15
2018-02-13T05:40:56.632Z,2.17
2018-02-13T05:41:22.732Z,2.35
2018-02-13T05:41:48.836Z,2.28
2018-02-13T05:42:14.936Z,2.33
2018-02-13T05:42:41.046Z,2.31
2018-02-13T05:43:07.140Z,2.32
2018-02-13T05:43:33.256Z,2.26
2018-02-13T05:43:59.345Z,2.31
2018-02-13T05:44:25.451Z,2.28
2018-02-13T05:44:51.549Z,2.31
2018-02-13T05:45:17.651Z,2.31
2018-02-13T05:45:43.746Z,2.29
2018-02-13T05:46:09.841Z,2.31
2018-02-13T05:46:35.959Z,2.29
2018-02-13T05:47:02.062Z,2.31
2018-02-13T05:47:28.160Z,2.31
2018-02-13T05:47:54.268Z,2.35
2018-02-13T05:48:20.358Z,2.39